sensor_id;sensor_type;location;lat;lon;timestamp;P1;durP1;ratioP1;P2;durP2;ratioP2
59766;SDS011;46248;58.364;25.582;2023-05-31T00:00:24;0.85;;;0.30;;
59766;SDS011;46248;58.364;25.582;2023-05-31T00:03:47;0.85;;;0.60;;
59766;SDS011;46248;58.364;25.582;2023-05-31T00:07:10;0.40;;;0.40;;
59766;SDS011;46248;58.364;25.582;2023-05-31T00:10:34;1.65;;;0.55;;
59766;SDS011;46248;58.364;25.582;2023-05-31T00:13:58;1.30;;;0.30;;
59766;SDS011;46248;58.364;25.582;2023-05-31T00:17:20;1.15;;;0.50;;
59766;SDS011;46248;58.364;25.582;2023-05-31T00:21:03;0.90;;;0.50;;
59766;SDS011;46248;58.364;25.582;2023-05-31T00:24:26;0.75;;;0.40;;
59766;SDS011;46248;58.364;25.582;2023-05-31T00:27:50;0.98;;;0.50;;
59766;SDS011;46248;58.364;25.582;2023-05-31T00:31:15;0.50;;;0.38;;
59766;SDS011;46248;58.364;25.582;2023-05-31T00:34:38;0.98;;;0.30;;
59766;SDS011;46248;58.364;25.582;2023-05-31T00:38:03;1.13;;;0.60;;
59766;SDS011;46248;58.364;25.582;2023-05-31T00:41:26;2.05;;;0.55;;
59766;SDS011;46248;58.364;25.582;2023-05-31T00:44:51;2.47;;;1.13;;
59766;SDS011;46248;58.364;25.582;2023-05-31T00:48:14;2.47;;;1.23;;
59766;SDS011;46248;58.364;25.582;2023-05-31T00:51:37;0.98;;;0.55;;
59766;SDS011;46248;58.364;25.582;2023-05-31T00:55:00;1.38;;;1.08;;
59766;SDS011;46248;58.364;25.582;2023-05-31T00:58:24;2.08;;;0.68;;
59766;SDS011;46248;58.364;25.582;2023-05-31T01:01:50;3.10;;;1.42;;
59766;SDS011;46248;58.364;25.582;2023-05-31T01:05:14;3.22;;;1.38;;
59766;SDS011;46248;58.364;25.582;2023-05-31T01:08:36;6.70;;;1.70;;
59766;SDS011;46248;58.364;25.582;2023-05-31T01:12:03;8.15;;;2.38;;
59766;SDS011;46248;58.364;25.582;2023-05-31T01:15:34;5.82;;;2.33;;
59766;SDS011;46248;58.364;25.582;2023-05-31T01:19:04;7.40;;;2.00;;
59766;SDS011;46248;58.364;25.582;2023-05-31T01:22:33;8.18;;;2.20;;
59766;SDS011;46248;58.364;25.582;2023-05-31T01:26:22;7.32;;;2.50;;
59766;SDS011;46248;58.364;25.582;2023-05-31T01:29:54;4.93;;;1.65;;
59766;SDS011;46248;58.364;25.582;2023-05-31T01:33:20;4.63;;;1.30;;
59766;SDS011;46248;58.364;25.582;2023-05-31T01:36:43;5.63;;;1.38;;
59766;SDS011;46248;58.364;25.582;2023-05-31T01:40:06;3.85;;;1.50;;
59766;SDS011;46248;58.364;25.582;2023-05-31T01:43:32;3.78;;;1.63;;
59766;SDS011;46248;58.364;25.582;2023-05-31T01:46:57;2.88;;;1.10;;
59766;SDS011;46248;58.364;25.582;2023-05-31T01:50:21;3.00;;;1.35;;
59766;SDS011;46248;58.364;25.582;2023-05-31T01:53:45;2.08;;;1.10;;
59766;SDS011;46248;58.364;25.582;2023-05-31T01:57:08;1.83;;;1.00;;
59766;SDS011;46248;58.364;25.582;2023-05-31T02:00:34;2.05;;;1.10;;
59766;SDS011;46248;58.364;25.582;2023-05-31T02:03:57;2.03;;;1.23;;
59766;SDS011;46248;58.364;25.582;2023-05-31T02:07:21;2.58;;;1.00;;
59766;SDS011;46248;58.364;25.582;2023-05-31T02:10:45;1.95;;;0.85;;
59766;SDS011;46248;58.364;25.582;2023-05-31T02:14:08;1.85;;;0.90;;
59766;SDS011;46248;58.364;25.582;2023-05-31T02:17:32;0.70;;;0.70;;
59766;SDS011;46248;58.364;25.582;2023-05-31T02:20:55;1.27;;;0.70;;
59766;SDS011;46248;58.364;25.582;2023-05-31T02:24:18;1.25;;;0.90;;
59766;SDS011;46248;58.364;25.582;2023-05-31T02:27:41;1.08;;;0.98;;
59766;SDS011;46248;58.364;25.582;2023-05-31T02:31:05;2.35;;;1.20;;
59766;SDS011;46248;58.364;25.582;2023-05-31T02:34:29;1.60;;;1.30;;
59766;SDS011;46248;58.364;25.582;2023-05-31T02:37:52;1.40;;;1.05;;
59766;SDS011;46248;58.364;25.582;2023-05-31T02:41:15;1.95;;;0.98;;
59766;SDS011;46248;58.364;25.582;2023-05-31T02:44:38;2.78;;;1.15;;
59766;SDS011;46248;58.364;25.582;2023-05-31T02:48:01;1.85;;;0.98;;
59766;SDS011;46248;58.364;25.582;2023-05-31T02:51:27;1.02;;;0.90;;
59766;SDS011;46248;58.364;25.582;2023-05-31T02:54:50;3.92;;;1.05;;
59766;SDS011;46248;58.364;25.582;2023-05-31T02:58:12;1.92;;;0.90;;
59766;SDS011;46248;58.364;25.582;2023-05-31T03:01:36;2.40;;;0.90;;
59766;SDS011;46248;58.364;25.582;2023-05-31T03:04:59;4.47;;;1.38;;
59766;SDS011;46248;58.364;25.582;2023-05-31T03:08:24;1.65;;;1.08;;
59766;SDS011;46248;58.364;25.582;2023-05-31T03:11:47;1.55;;;1.00;;
59766;SDS011;46248;58.364;25.582;2023-05-31T03:15:10;0.80;;;0.80;;
59766;SDS011;46248;58.364;25.582;2023-05-31T03:18:33;2.10;;;1.33;;
59766;SDS011;46248;58.364;25.582;2023-05-31T03:21:57;5.60;;;1.02;;
59766;SDS011;46248;58.364;25.582;2023-05-31T03:25:21;3.80;;;1.10;;
59766;SDS011;46248;58.364;25.582;2023-05-31T03:28:44;2.20;;;1.08;;
59766;SDS011;46248;58.364;25.582;2023-05-31T03:32:07;0.65;;;0.60;;
59766;SDS011;46248;58.364;25.582;2023-05-31T03:35:30;2.67;;;0.90;;
59766;SDS011;46248;58.364;25.582;2023-05-31T03:38:52;3.20;;;1.27;;
59766;SDS011;46248;58.364;25.582;2023-05-31T03:42:17;2.30;;;1.00;;
59766;SDS011;46248;58.364;25.582;2023-05-31T03:45:40;1.90;;;1.02;;
59766;SDS011;46248;58.364;25.582;2023-05-31T03:49:03;1.67;;;1.58;;
59766;SDS011;46248;58.364;25.582;2023-05-31T03:52:26;3.70;;;1.00;;
59766;SDS011;46248;58.364;25.582;2023-05-31T03:55:49;2.35;;;1.15;;
59766;SDS011;46248;58.364;25.582;2023-05-31T03:59:14;4.28;;;1.77;;
59766;SDS011;46248;58.364;25.582;2023-05-31T04:02:37;2.92;;;1.67;;
59766;SDS011;46248;58.364;25.582;2023-05-31T04:06:11;5.47;;;1.73;;
59766;SDS011;46248;58.364;25.582;2023-05-31T04:09:34;1.75;;;0.77;;
59766;SDS011;46248;58.364;25.582;2023-05-31T04:12:57;1.92;;;0.65;;
59766;SDS011;46248;58.364;25.582;2023-05-31T04:16:22;2.97;;;1.65;;
59766;SDS011;46248;58.364;25.582;2023-05-31T04:19:46;4.57;;;1.60;;
59766;SDS011;46248;58.364;25.582;2023-05-31T04:23:09;2.42;;;1.17;;
59766;SDS011;46248;58.364;25.582;2023-05-31T04:26:32;4.03;;;1.10;;
59766;SDS011;46248;58.364;25.582;2023-05-31T04:29:55;4.28;;;1.23;;
59766;SDS011;46248;58.364;25.582;2023-05-31T04:33:20;2.08;;;0.90;;
59766;SDS011;46248;58.364;25.582;2023-05-31T04:36:43;2.92;;;2.15;;
59766;SDS011;46248;58.364;25.582;2023-05-31T04:40:10;4.55;;;1.55;;
59766;SDS011;46248;58.364;25.582;2023-05-31T04:43:34;5.03;;;1.90;;
59766;SDS011;46248;58.364;25.582;2023-05-31T04:47:00;4.18;;;1.95;;
59766;SDS011;46248;58.364;25.582;2023-05-31T04:50:24;3.08;;;1.58;;
59766;SDS011;46248;58.364;25.582;2023-05-31T04:53:50;5.88;;;1.98;;
59766;SDS011;46248;58.364;25.582;2023-05-31T04:57:13;2.67;;;1.40;;
59766;SDS011;46248;58.364;25.582;2023-05-31T05:00:36;2.53;;;1.00;;
59766;SDS011;46248;58.364;25.582;2023-05-31T05:04:00;3.17;;;1.20;;
59766;SDS011;46248;58.364;25.582;2023-05-31T05:07:24;2.45;;;1.42;;
59766;SDS011;46248;58.364;25.582;2023-05-31T05:10:47;2.40;;;0.98;;
59766;SDS011;46248;58.364;25.582;2023-05-31T05:14:10;9.50;;;1.80;;
59766;SDS011;46248;58.364;25.582;2023-05-31T05:17:33;1.35;;;0.70;;
59766;SDS011;46248;58.364;25.582;2023-05-31T05:20:56;1.38;;;1.00;;
59766;SDS011;46248;58.364;25.582;2023-05-31T05:24:21;3.78;;;0.68;;
59766;SDS011;46248;58.364;25.582;2023-05-31T05:27:44;2.20;;;0.70;;
59766;SDS011;46248;58.364;25.582;2023-05-31T05:31:07;1.13;;;0.70;;
59766;SDS011;46248;58.364;25.582;2023-05-31T05:34:30;1.55;;;0.77;;
59766;SDS011;46248;58.364;25.582;2023-05-31T05:37:54;1.75;;;0.77;;
59766;SDS011;46248;58.364;25.582;2023-05-31T05:41:20;1.42;;;1.02;;
59766;SDS011;46248;58.364;25.582;2023-05-31T05:44:42;1.30;;;0.80;;
59766;SDS011;46248;58.364;25.582;2023-05-31T05:48:05;4.68;;;1.10;;
59766;SDS011;46248;58.364;25.582;2023-05-31T05:51:28;1.60;;;0.80;;
59766;SDS011;46248;58.364;25.582;2023-05-31T05:54:51;2.17;;;0.70;;
59766;SDS011;46248;58.364;25.582;2023-05-31T05:58:15;1.80;;;0.90;;
59766;SDS011;46248;58.364;25.582;2023-05-31T06:01:38;3.70;;;0.90;;
59766;SDS011;46248;58.364;25.582;2023-05-31T06:05:02;2.35;;;0.88;;
59766;SDS011;46248;58.364;25.582;2023-05-31T06:08:25;2.25;;;0.93;;
59766;SDS011;46248;58.364;25.582;2023-05-31T06:11:48;1.60;;;0.90;;
59766;SDS011;46248;58.364;25.582;2023-05-31T06:15:13;2.72;;;1.80;;
59766;SDS011;46248;58.364;25.582;2023-05-31T06:18:36;4.65;;;1.23;;
59766;SDS011;46248;58.364;25.582;2023-05-31T06:21:59;1.52;;;1.27;;
59766;SDS011;46248;58.364;25.582;2023-05-31T06:25:22;6.30;;;1.33;;
59766;SDS011;46248;58.364;25.582;2023-05-31T06:28:45;1.98;;;1.00;;
59766;SDS011;46248;58.364;25.582;2023-05-31T06:32:10;7.90;;;1.30;;
59766;SDS011;46248;58.364;25.582;2023-05-31T06:35:33;2.88;;;0.85;;
59766;SDS011;46248;58.364;25.582;2023-05-31T06:38:56;5.47;;;1.05;;
59766;SDS011;46248;58.364;25.582;2023-05-31T06:42:19;1.67;;;1.02;;
59766;SDS011;46248;58.364;25.582;2023-05-31T06:45:42;7.63;;;1.33;;
59766;SDS011;46248;58.364;25.582;2023-05-31T06:49:07;2.58;;;0.90;;
59766;SDS011;46248;58.364;25.582;2023-05-31T06:52:32;2.92;;;1.10;;
59766;SDS011;46248;58.364;25.582;2023-05-31T06:55:55;3.75;;;1.20;;
59766;SDS011;46248;58.364;25.582;2023-05-31T06:59:18;4.30;;;1.08;;
59766;SDS011;46248;58.364;25.582;2023-05-31T07:02:40;4.25;;;1.50;;
59766;SDS011;46248;58.364;25.582;2023-05-31T07:06:05;3.85;;;1.20;;
59766;SDS011;46248;58.364;25.582;2023-05-31T07:09:28;8.95;;;2.10;;
59766;SDS011;46248;58.364;25.582;2023-05-31T07:12:51;3.60;;;1.10;;
59766;SDS011;46248;58.364;25.582;2023-05-31T07:16:14;4.90;;;1.50;;
59766;SDS011;46248;58.364;25.582;2023-05-31T07:19:44;4.55;;;1.15;;
59766;SDS011;46248;58.364;25.582;2023-05-31T07:23:10;5.38;;;1.25;;
59766;SDS011;46248;58.364;25.582;2023-05-31T07:26:33;4.97;;;1.60;;
59766;SDS011;46248;58.364;25.582;2023-05-31T07:29:55;6.75;;;1.50;;
59766;SDS011;46248;58.364;25.582;2023-05-31T07:33:18;3.03;;;1.20;;
59766;SDS011;46248;58.364;25.582;2023-05-31T07:36:48;5.82;;;1.00;;
59766;SDS011;46248;58.364;25.582;2023-05-31T07:40:12;2.53;;;1.00;;
59766;SDS011;46248;58.364;25.582;2023-05-31T07:43:36;3.63;;;0.90;;
59766;SDS011;46248;58.364;25.582;2023-05-31T07:47:01;4.72;;;1.48;;
59766;SDS011;46248;58.364;25.582;2023-05-31T07:50:24;3.15;;;1.30;;
59766;SDS011;46248;58.364;25.582;2023-05-31T07:53:47;5.45;;;1.13;;
59766;SDS011;46248;58.364;25.582;2023-05-31T07:57:11;6.40;;;1.08;;
59766;SDS011;46248;58.364;25.582;2023-05-31T08:00:34;3.78;;;0.80;;
59766;SDS011;46248;58.364;25.582;2023-05-31T08:04:04;3.45;;;1.35;;
59766;SDS011;46248;58.364;25.582;2023-05-31T08:07:28;5.50;;;1.00;;
59766;SDS011;46248;58.364;25.582;2023-05-31T08:10:51;6.78;;;1.17;;
59766;SDS011;46248;58.364;25.582;2023-05-31T08:14:16;3.13;;;1.30;;
59766;SDS011;46248;58.364;25.582;2023-05-31T08:17:38;2.80;;;1.50;;
59766;SDS011;46248;58.364;25.582;2023-05-31T08:21:02;3.75;;;1.10;;
59766;SDS011;46248;58.364;25.582;2023-05-31T08:24:26;2.40;;;1.45;;
59766;SDS011;46248;58.364;25.582;2023-05-31T08:27:50;5.60;;;1.20;;
59766;SDS011;46248;58.364;25.582;2023-05-31T08:31:14;5.85;;;1.35;;
59766;SDS011;46248;58.364;25.582;2023-05-31T08:34:37;4.32;;;1.33;;
59766;SDS011;46248;58.364;25.582;2023-05-31T08:37:59;3.75;;;1.15;;
59766;SDS011;46248;58.364;25.582;2023-05-31T08:41:23;2.85;;;1.83;;
59766;SDS011;46248;58.364;25.582;2023-05-31T08:44:48;3.40;;;1.30;;
59766;SDS011;46248;58.364;25.582;2023-05-31T08:48:17;4.20;;;1.65;;
59766;SDS011;46248;58.364;25.582;2023-05-31T08:51:46;3.05;;;1.52;;
59766;SDS011;46248;58.364;25.582;2023-05-31T08:55:11;2.08;;;1.10;;
59766;SDS011;46248;58.364;25.582;2023-05-31T08:58:34;3.75;;;1.30;;
59766;SDS011;46248;58.364;25.582;2023-05-31T09:01:59;2.25;;;1.25;;
59766;SDS011;46248;58.364;25.582;2023-05-31T09:05:25;5.38;;;1.00;;
59766;SDS011;46248;58.364;25.582;2023-05-31T09:08:48;5.65;;;1.30;;
59766;SDS011;46248;58.364;25.582;2023-05-31T09:12:10;4.75;;;0.88;;
59766;SDS011;46248;58.364;25.582;2023-05-31T09:15:35;1.65;;;1.02;;
59766;SDS011;46248;58.364;25.582;2023-05-31T09:19:02;18.13;;;1.52;;
59766;SDS011;46248;58.364;25.582;2023-05-31T09:22:27;6.35;;;1.30;;
59766;SDS011;46248;58.364;25.582;2023-05-31T09:25:50;2.83;;;0.90;;
59766;SDS011;46248;58.364;25.582;2023-05-31T09:29:14;4.15;;;1.08;;
59766;SDS011;46248;58.364;25.582;2023-05-31T09:32:38;5.10;;;1.25;;
59766;SDS011;46248;58.364;25.582;2023-05-31T09:36:01;3.13;;;1.23;;
59766;SDS011;46248;58.364;25.582;2023-05-31T09:39:26;4.45;;;1.20;;
59766;SDS011;46248;58.364;25.582;2023-05-31T09:42:50;1.75;;;0.80;;
59766;SDS011;46248;58.364;25.582;2023-05-31T09:46:14;4.93;;;0.95;;
59766;SDS011;46248;58.364;25.582;2023-05-31T09:49:37;2.92;;;1.10;;
59766;SDS011;46248;58.364;25.582;2023-05-31T09:53:00;2.67;;;1.00;;
59766;SDS011;46248;58.364;25.582;2023-05-31T09:56:25;7.45;;;1.35;;
59766;SDS011;46248;58.364;25.582;2023-05-31T09:59:55;5.60;;;1.17;;
59766;SDS011;46248;58.364;25.582;2023-05-31T10:03:19;2.65;;;1.30;;
59766;SDS011;46248;58.364;25.582;2023-05-31T10:06:43;3.67;;;1.20;;
59766;SDS011;46248;58.364;25.582;2023-05-31T10:10:07;2.75;;;1.00;;
59766;SDS011;46248;58.364;25.582;2023-05-31T10:13:33;3.97;;;1.10;;
59766;SDS011;46248;58.364;25.582;2023-05-31T10:16:57;5.72;;;1.20;;
59766;SDS011;46248;58.364;25.582;2023-05-31T10:20:25;2.33;;;1.30;;
59766;SDS011;46248;58.364;25.582;2023-05-31T10:23:56;5.60;;;1.17;;
59766;SDS011;46248;58.364;25.582;2023-05-31T10:27:21;3.10;;;1.13;;
59766;SDS011;46248;58.364;25.582;2023-05-31T10:30:54;3.63;;;0.93;;
59766;SDS011;46248;58.364;25.582;2023-05-31T10:34:19;2.15;;;1.20;;
59766;SDS011;46248;58.364;25.582;2023-05-31T10:37:43;1.65;;;1.15;;
59766;SDS011;46248;58.364;25.582;2023-05-31T10:41:09;3.13;;;1.00;;
59766;SDS011;46248;58.364;25.582;2023-05-31T10:44:46;11.10;;;1.67;;
59766;SDS011;46248;58.364;25.582;2023-05-31T10:48:20;6.07;;;1.15;;
59766;SDS011;46248;58.364;25.582;2023-05-31T10:51:50;4.20;;;1.05;;
59766;SDS011;46248;58.364;25.582;2023-05-31T10:55:14;3.90;;;1.52;;
59766;SDS011;46248;58.364;25.582;2023-05-31T10:58:39;4.40;;;1.15;;
59766;SDS011;46248;58.364;25.582;2023-05-31T11:02:03;2.15;;;1.10;;
59766;SDS011;46248;58.364;25.582;2023-05-31T11:05:29;4.47;;;1.05;;
59766;SDS011;46248;58.364;25.582;2023-05-31T11:08:58;5.30;;;1.20;;
59766;SDS011;46248;58.364;25.582;2023-05-31T11:12:32;7.38;;;1.48;;
59766;SDS011;46248;58.364;25.582;2023-05-31T11:15:56;1.98;;;1.13;;
59766;SDS011;46248;58.364;25.582;2023-05-31T11:19:20;5.40;;;1.23;;
59766;SDS011;46248;58.364;25.582;2023-05-31T11:22:49;5.90;;;1.50;;
59766;SDS011;46248;58.364;25.582;2023-05-31T11:26:52;4.28;;;0.90;;
59766;SDS011;46248;58.364;25.582;2023-05-31T11:30:16;3.50;;;1.38;;
59766;SDS011;46248;58.364;25.582;2023-05-31T11:33:43;6.93;;;1.40;;
59766;SDS011;46248;58.364;25.582;2023-05-31T11:37:18;2.35;;;1.15;;
59766;SDS011;46248;58.364;25.582;2023-05-31T11:40:45;4.82;;;1.13;;
59766;SDS011;46248;58.364;25.582;2023-05-31T11:44:08;4.13;;;1.00;;
59766;SDS011;46248;58.364;25.582;2023-05-31T11:47:36;5.50;;;1.40;;
59766;SDS011;46248;58.364;25.582;2023-05-31T11:51:08;6.65;;;1.38;;
59766;SDS011;46248;58.364;25.582;2023-05-31T11:54:32;3.92;;;1.63;;
59766;SDS011;46248;58.364;25.582;2023-05-31T11:57:57;2.95;;;0.88;;
59766;SDS011;46248;58.364;25.582;2023-05-31T12:01:21;5.90;;;1.25;;
59766;SDS011;46248;58.364;25.582;2023-05-31T12:04:45;3.70;;;1.00;;
59766;SDS011;46248;58.364;25.582;2023-05-31T12:08:08;5.05;;;1.67;;
59766;SDS011;46248;58.364;25.582;2023-05-31T12:11:34;5.35;;;1.33;;
59766;SDS011;46248;58.364;25.582;2023-05-31T12:14:58;4.78;;;1.40;;
59766;SDS011;46248;58.364;25.582;2023-05-31T12:18:22;5.53;;;1.75;;
59766;SDS011;46248;58.364;25.582;2023-05-31T12:21:45;3.78;;;1.10;;
59766;SDS011;46248;58.364;25.582;2023-05-31T12:25:08;3.50;;;1.05;;
59766;SDS011;46248;58.364;25.582;2023-05-31T12:28:31;3.88;;;1.45;;
59766;SDS011;46248;58.364;25.582;2023-05-31T12:32:01;5.15;;;1.42;;
59766;SDS011;46248;58.364;25.582;2023-05-31T12:35:26;4.65;;;1.20;;
59766;SDS011;46248;58.364;25.582;2023-05-31T12:38:52;5.80;;;1.63;;
59766;SDS011;46248;58.364;25.582;2023-05-31T12:42:16;3.92;;;1.05;;
59766;SDS011;46248;58.364;25.582;2023-05-31T12:45:39;4.07;;;0.80;;
59766;SDS011;46248;58.364;25.582;2023-05-31T12:49:11;2.88;;;1.10;;
59766;SDS011;46248;58.364;25.582;2023-05-31T12:52:35;6.10;;;1.05;;
59766;SDS011;46248;58.364;25.582;2023-05-31T12:56:00;3.38;;;1.20;;
59766;SDS011;46248;58.364;25.582;2023-05-31T12:59:23;5.45;;;1.55;;
59766;SDS011;46248;58.364;25.582;2023-05-31T13:02:46;5.72;;;1.00;;
59766;SDS011;46248;58.364;25.582;2023-05-31T13:06:12;3.92;;;1.30;;
59766;SDS011;46248;58.364;25.582;2023-05-31T13:09:35;3.95;;;1.10;;
59766;SDS011;46248;58.364;25.582;2023-05-31T13:12:58;5.85;;;1.35;;
59766;SDS011;46248;58.364;25.582;2023-05-31T13:16:21;3.42;;;1.30;;
59766;SDS011;46248;58.364;25.582;2023-05-31T13:19:44;5.05;;;1.27;;
59766;SDS011;46248;58.364;25.582;2023-05-31T13:23:28;3.90;;;1.23;;
59766;SDS011;46248;58.364;25.582;2023-05-31T13:26:51;2.83;;;1.00;;
59766;SDS011;46248;58.364;25.582;2023-05-31T13:30:14;3.92;;;1.08;;
59766;SDS011;46248;58.364;25.582;2023-05-31T13:33:37;4.10;;;1.40;;
59766;SDS011;46248;58.364;25.582;2023-05-31T13:37:00;4.55;;;1.30;;
59766;SDS011;46248;58.364;25.582;2023-05-31T13:40:25;4.20;;;1.10;;
59766;SDS011;46248;58.364;25.582;2023-05-31T13:43:48;4.22;;;1.45;;
59766;SDS011;46248;58.364;25.582;2023-05-31T13:47:12;5.38;;;1.63;;
59766;SDS011;46248;58.364;25.582;2023-05-31T13:50:35;2.92;;;1.30;;
59766;SDS011;46248;58.364;25.582;2023-05-31T13:53:58;6.65;;;1.50;;
59766;SDS011;46248;58.364;25.582;2023-05-31T13:57:23;10.48;;;4.82;;
59766;SDS011;46248;58.364;25.582;2023-05-31T14:00:45;2.53;;;1.70;;
59766;SDS011;46248;58.364;25.582;2023-05-31T14:04:14;4.88;;;1.30;;
59766;SDS011;46248;58.364;25.582;2023-05-31T14:07:36;2.33;;;1.30;;
59766;SDS011;46248;58.364;25.582;2023-05-31T14:11:00;3.33;;;0.85;;
59766;SDS011;46248;58.364;25.582;2023-05-31T14:14:24;3.80;;;1.38;;
59766;SDS011;46248;58.364;25.582;2023-05-31T14:17:47;4.65;;;1.20;;
59766;SDS011;46248;58.364;25.582;2023-05-31T14:21:09;4.95;;;1.77;;
59766;SDS011;46248;58.364;25.582;2023-05-31T14:24:32;5.22;;;1.48;;
59766;SDS011;46248;58.364;25.582;2023-05-31T14:27:55;2.33;;;1.05;;
59766;SDS011;46248;58.364;25.582;2023-05-31T14:31:19;2.95;;;1.30;;
59766;SDS011;46248;58.364;25.582;2023-05-31T14:34:42;2.00;;;1.38;;
59766;SDS011;46248;58.364;25.582;2023-05-31T14:38:06;1.90;;;0.90;;
59766;SDS011;46248;58.364;25.582;2023-05-31T14:41:49;2.33;;;0.90;;
59766;SDS011;46248;58.364;25.582;2023-05-31T14:45:12;4.97;;;1.77;;
59766;SDS011;46248;58.364;25.582;2023-05-31T14:48:36;2.05;;;1.10;;
59766;SDS011;46248;58.364;25.582;2023-05-31T14:51:59;2.08;;;1.15;;
59766;SDS011;46248;58.364;25.582;2023-05-31T14:55:22;2.72;;;1.20;;
59766;SDS011;46248;58.364;25.582;2023-05-31T14:58:45;5.57;;;1.55;;
59766;SDS011;46248;58.364;25.582;2023-05-31T15:02:08;4.07;;;1.38;;
59766;SDS011;46248;58.364;25.582;2023-05-31T15:05:33;6.60;;;1.80;;
59766;SDS011;46248;58.364;25.582;2023-05-31T15:08:56;7.13;;;1.80;;
59766;SDS011;46248;58.364;25.582;2023-05-31T15:12:18;3.80;;;1.27;;
59766;SDS011;46248;58.364;25.582;2023-05-31T15:15:41;2.25;;;1.45;;
59766;SDS011;46248;58.364;25.582;2023-05-31T15:19:04;3.83;;;1.20;;
59766;SDS011;46248;58.364;25.582;2023-05-31T15:22:29;2.47;;;1.10;;
59766;SDS011;46248;58.364;25.582;2023-05-31T15:25:52;8.90;;;1.33;;
59766;SDS011;46248;58.364;25.582;2023-05-31T15:29:15;6.28;;;1.30;;
59766;SDS011;46248;58.364;25.582;2023-05-31T15:32:38;4.43;;;1.40;;
59766;SDS011;46248;58.364;25.582;2023-05-31T15:36:01;4.40;;;1.30;;
59766;SDS011;46248;58.364;25.582;2023-05-31T15:39:26;3.40;;;1.08;;
59766;SDS011;46248;58.364;25.582;2023-05-31T15:42:49;5.60;;;1.17;;
59766;SDS011;46248;58.364;25.582;2023-05-31T15:46:12;4.28;;;1.20;;
59766;SDS011;46248;58.364;25.582;2023-05-31T15:49:35;3.72;;;1.40;;
59766;SDS011;46248;58.364;25.582;2023-05-31T15:52:59;5.15;;;1.17;;
59766;SDS011;46248;58.364;25.582;2023-05-31T15:56:24;3.78;;;1.35;;
59766;SDS011;46248;58.364;25.582;2023-05-31T15:59:48;2.13;;;1.27;;
59766;SDS011;46248;58.364;25.582;2023-05-31T16:03:10;3.33;;;0.80;;
59766;SDS011;46248;58.364;25.582;2023-05-31T16:06:33;3.75;;;0.75;;
59766;SDS011;46248;58.364;25.582;2023-05-31T16:09:56;1.13;;;0.70;;
59766;SDS011;46248;58.364;25.582;2023-05-31T16:13:21;2.90;;;0.80;;
59766;SDS011;46248;58.364;25.582;2023-05-31T16:16:43;1.58;;;1.45;;
59766;SDS011;46248;58.364;25.582;2023-05-31T16:20:07;4.25;;;1.20;;
59766;SDS011;46248;58.364;25.582;2023-05-31T16:23:30;1.98;;;0.60;;
59766;SDS011;46248;58.364;25.582;2023-05-31T16:26:54;2.10;;;0.65;;
59766;SDS011;46248;58.364;25.582;2023-05-31T16:30:18;0.40;;;0.40;;
59766;SDS011;46248;58.364;25.582;2023-05-31T16:33:42;1.20;;;0.52;;
59766;SDS011;46248;58.364;25.582;2023-05-31T16:37:05;1.48;;;0.50;;
59766;SDS011;46248;58.364;25.582;2023-05-31T16:40:29;3.42;;;1.67;;
59766;SDS011;46248;58.364;25.582;2023-05-31T16:43:52;0.80;;;0.60;;
59766;SDS011;46248;58.364;25.582;2023-05-31T16:47:17;0.80;;;0.50;;
59766;SDS011;46248;58.364;25.582;2023-05-31T16:50:40;1.15;;;0.60;;
59766;SDS011;46248;58.364;25.582;2023-05-31T16:54:03;0.88;;;0.30;;
59766;SDS011;46248;58.364;25.582;2023-05-31T16:57:26;0.75;;;0.50;;
59766;SDS011;46248;58.364;25.582;2023-05-31T17:00:50;1.27;;;0.70;;
59766;SDS011;46248;58.364;25.582;2023-05-31T17:04:14;1.50;;;0.50;;
59766;SDS011;46248;58.364;25.582;2023-05-31T17:07:37;2.13;;;0.60;;
59766;SDS011;46248;58.364;25.582;2023-05-31T17:11:00;2.60;;;1.33;;
59766;SDS011;46248;58.364;25.582;2023-05-31T17:14:23;1.33;;;0.60;;
59766;SDS011;46248;58.364;25.582;2023-05-31T17:17:46;1.65;;;0.80;;
59766;SDS011;46248;58.364;25.582;2023-05-31T17:21:11;4.13;;;0.65;;
59766;SDS011;46248;58.364;25.582;2023-05-31T17:24:34;4.43;;;0.82;;
59766;SDS011;46248;58.364;25.582;2023-05-31T17:27:57;0.50;;;0.30;;
59766;SDS011;46248;58.364;25.582;2023-05-31T17:31:20;0.65;;;0.50;;
59766;SDS011;46248;58.364;25.582;2023-05-31T17:34:43;1.15;;;0.40;;
59766;SDS011;46248;58.364;25.582;2023-05-31T17:38:07;3.20;;;0.60;;
59766;SDS011;46248;58.364;25.582;2023-05-31T17:41:30;0.25;;;0.22;;
59766;SDS011;46248;58.364;25.582;2023-05-31T17:44:53;1.92;;;0.40;;
59766;SDS011;46248;58.364;25.582;2023-05-31T17:48:16;1.35;;;0.20;;
59766;SDS011;46248;58.364;25.582;2023-05-31T17:51:39;0.75;;;0.40;;
59766;SDS011;46248;58.364;25.582;2023-05-31T17:55:04;0.45;;;0.40;;
59766;SDS011;46248;58.364;25.582;2023-05-31T17:58:28;0.50;;;0.28;;
59766;SDS011;46248;58.364;25.582;2023-05-31T18:01:51;1.95;;;0.32;;
59766;SDS011;46248;58.364;25.582;2023-05-31T18:05:14;5.75;;;0.32;;
59766;SDS011;46248;58.364;25.582;2023-05-31T18:08:37;1.13;;;0.30;;
59766;SDS011;46248;58.364;25.582;2023-05-31T18:12:01;1.98;;;0.32;;
59766;SDS011;46248;58.364;25.582;2023-05-31T18:15:24;1.92;;;0.40;;
59766;SDS011;46248;58.364;25.582;2023-05-31T18:18:46;2.63;;;0.40;;
59766;SDS011;46248;58.364;25.582;2023-05-31T18:22:10;0.20;;;0.20;;
59766;SDS011;46248;58.364;25.582;2023-05-31T18:25:33;2.08;;;0.55;;
59766;SDS011;46248;58.364;25.582;2023-05-31T18:28:58;1.23;;;0.20;;
59766;SDS011;46248;58.364;25.582;2023-05-31T18:32:21;0.40;;;0.25;;
59766;SDS011;46248;58.364;25.582;2023-05-31T18:35:44;1.75;;;0.20;;
59766;SDS011;46248;58.364;25.582;2023-05-31T18:39:07;0.82;;;0.30;;
59766;SDS011;46248;58.364;25.582;2023-05-31T18:42:33;1.10;;;0.68;;
59766;SDS011;46248;58.364;25.582;2023-05-31T18:45:58;1.05;;;0.20;;
59766;SDS011;46248;58.364;25.582;2023-05-31T18:49:20;1.70;;;0.50;;
59766;SDS011;46248;58.364;25.582;2023-05-31T18:52:43;1.67;;;0.45;;
59766;SDS011;46248;58.364;25.582;2023-05-31T18:56:08;0.60;;;0.50;;
59766;SDS011;46248;58.364;25.582;2023-05-31T18:59:30;0.65;;;0.35;;
59766;SDS011;46248;58.364;25.582;2023-05-31T19:02:55;0.30;;;0.30;;
59766;SDS011;46248;58.364;25.582;2023-05-31T19:06:18;0.73;;;0.20;;
59766;SDS011;46248;58.364;25.582;2023-05-31T19:09:41;1.55;;;0.30;;
59766;SDS011;46248;58.364;25.582;2023-05-31T19:13:04;1.15;;;0.20;;
59766;SDS011;46248;58.364;25.582;2023-05-31T19:16:29;2.00;;;0.20;;
59766;SDS011;46248;58.364;25.582;2023-05-31T19:19:53;0.68;;;0.20;;
59766;SDS011;46248;58.364;25.582;2023-05-31T19:23:16;1.27;;;0.22;;
59766;SDS011;46248;58.364;25.582;2023-05-31T19:26:39;1.63;;;0.30;;
59766;SDS011;46248;58.364;25.582;2023-05-31T19:30:02;0.25;;;0.22;;
59766;SDS011;46248;58.364;25.582;2023-05-31T19:33:25;0.32;;;0.32;;
59766;SDS011;46248;58.364;25.582;2023-05-31T19:36:50;1.52;;;0.20;;
59766;SDS011;46248;58.364;25.582;2023-05-31T19:40:12;0.63;;;0.20;;
59766;SDS011;46248;58.364;25.582;2023-05-31T19:43:35;0.45;;;0.30;;
59766;SDS011;46248;58.364;25.582;2023-05-31T19:46:59;1.00;;;0.35;;
59766;SDS011;46248;58.364;25.582;2023-05-31T19:50:22;0.82;;;0.30;;
59766;SDS011;46248;58.364;25.582;2023-05-31T19:53:47;1.13;;;0.50;;
59766;SDS011;46248;58.364;25.582;2023-05-31T19:57:10;1.23;;;0.32;;
59766;SDS011;46248;58.364;25.582;2023-05-31T20:00:33;8.55;;;1.15;;
59766;SDS011;46248;58.364;25.582;2023-05-31T20:03:56;2.10;;;0.50;;
59766;SDS011;46248;58.364;25.582;2023-05-31T20:07:19;0.88;;;0.40;;
59766;SDS011;46248;58.364;25.582;2023-05-31T20:10:43;1.00;;;0.40;;